createdAt,value
2023-01-22T00:00:05.632Z,2.23
2023-01-22T00:02:36.046Z,2.27
2023-01-22T00:05:03.329Z,3.23
2023-01-22T00:07:29.938Z,2.70
2023-01-22T00:09:56.849Z,1.97
2023-01-22T00:12:23.514Z,1.90
2023-01-22T00:14:50.134Z,3.33
2023-01-22T00:17:16.825Z,2.03
2023-01-22T00:19:43.564Z,2.97
2023-01-22T00:22:11.602Z,1.40
2023-01-22T00:24:40.078Z,1.20
2023-01-22T00:27:06.766Z,2.70
2023-01-22T00:29:33.353Z,2.57
2023-01-22T00:32:00.042Z,2.23
2023-01-22T00:34:26.776Z,2.33
2023-01-22T00:36:55.229Z,5.23
2023-01-22T00:39:22.662Z,2.57
2023-01-22T00:41:49.970Z,3.87
2023-01-22T00:44:16.718Z,3.70
2023-01-22T00:46:43.496Z,3.40
2023-01-22T00:49:10.219Z,4.00
2023-01-22T00:51:39.343Z,6.57
2023-01-22T00:54:06.327Z,5.00
2023-01-22T00:56:32.906Z,5.27
2023-01-22T00:58:59.518Z,4.30
2023-01-22T01:01:26.209Z,6.73
2023-01-22T01:03:52.777Z,5.17
2023-01-22T01:06:21.574Z,3.97
2023-01-22T01:08:48.981Z,7.00
2023-01-22T01:11:22.089Z,5.17
2023-01-22T01:13:49.888Z,5.60
2023-01-22T01:16:29.297Z,6.30
2023-01-22T01:19:07.314Z,7.03
2023-01-22T01:21:34.325Z,8.37
2023-01-22T01:24:01.002Z,9.23
2023-01-22T01:26:28.310Z,9.63
2023-01-22T01:28:54.897Z,9.47
2023-01-22T01:31:22.848Z,6.97
2023-01-22T01:33:49.913Z,7.17
2023-01-22T01:36:30.675Z,8.90
2023-01-22T01:39:05.241Z,8.77
2023-01-22T01:41:31.903Z,7.37
2023-01-22T01:44:12.099Z,8.83
2023-01-22T01:46:43.697Z,8.00
2023-01-22T01:49:30.326Z,7.20
2023-01-22T01:52:00.530Z,8.53
2023-01-22T01:54:28.045Z,7.77
2023-01-22T01:57:04.462Z,7.57
2023-01-22T01:59:33.639Z,11.37
2023-01-22T02:02:02.007Z,12.30
2023-01-22T02:04:28.725Z,11.37
2023-01-22T02:06:55.595Z,10.73
2023-01-22T02:09:22.447Z,11.37
2023-01-22T02:11:50.531Z,11.60
2023-01-22T02:14:18.981Z,8.73
2023-01-22T02:16:45.985Z,9.87
2023-01-22T02:19:12.654Z,7.47
2023-01-22T02:21:41.734Z,5.77
2023-01-22T02:24:13.801Z,7.37
2023-01-22T02:26:42.286Z,4.70
2023-01-22T02:29:10.567Z,5.20
2023-01-22T02:31:38.103Z,6.17
2023-01-22T02:34:05.989Z,7.73
2023-01-22T02:36:34.228Z,7.00
2023-01-22T02:39:00.895Z,4.83
2023-01-22T02:41:27.919Z,7.47
2023-01-22T02:43:54.540Z,7.40
2023-01-22T02:46:21.474Z,8.73
2023-01-22T02:48:48.081Z,10.43
2023-01-22T02:51:14.758Z,11.33
2023-01-22T02:53:41.361Z,9.30
2023-01-22T02:56:09.532Z,12.17
2023-01-22T02:58:36.290Z,8.17
2023-01-22T03:01:20.809Z,8.23
2023-01-22T03:03:49.573Z,6.70
2023-01-22T03:06:21.642Z,0.20
2023-01-22T03:08:50.370Z,0.10
2023-01-22T03:11:16.956Z,0.10
2023-01-22T03:14:02.032Z,0.20
2023-01-22T03:16:47.218Z,0.20
2023-01-22T03:19:32.388Z,0.20
2023-01-22T03:21:59.028Z,0.17
2023-01-22T03:24:25.668Z,0.10
2023-01-22T03:26:52.566Z,0.20
2023-01-22T03:29:19.225Z,0.10
2023-01-22T03:31:48.474Z,0.10
2023-01-22T03:34:16.534Z,0.33
2023-01-22T03:36:43.563Z,0.20
2023-01-22T03:39:10.691Z,4.33
2023-01-22T03:41:37.611Z,0.20
2023-01-22T03:44:04.488Z,0.17
2023-01-22T03:46:31.834Z,0.10
2023-01-22T03:48:58.464Z,0.20
2023-01-22T03:51:25.225Z,0.20
2023-01-22T03:53:51.841Z,0.10
2023-01-22T03:56:20.877Z,0.20
2023-01-22T03:58:48.131Z,2.80
2023-01-22T04:01:17.089Z,0.20
2023-01-22T04:03:43.827Z,0.10
2023-01-22T04:06:11.692Z,0.20
2023-01-22T04:08:40.763Z,0.20
2023-01-22T04:11:07.996Z,0.20
2023-01-22T04:13:36.183Z,0.10
2023-01-22T04:16:02.780Z,0.10
2023-01-22T04:18:29.519Z,0.10
2023-01-22T04:20:56.108Z,0.10
2023-01-22T04:23:22.974Z,0.30
2023-01-22T04:25:50.047Z,0.40
2023-01-22T04:28:17.032Z,0.10
2023-01-22T04:30:45.516Z,0.13
2023-01-22T04:33:12.953Z,0.10
2023-01-22T04:35:40.079Z,0.37
2023-01-22T04:38:07.999Z,0.10
2023-01-22T04:40:34.586Z,0.20
2023-01-22T04:43:02.660Z,0.10
2023-01-22T04:45:29.551Z,0.10
2023-01-22T04:47:56.341Z,0.10
2023-01-22T04:50:27.692Z,0.10
2023-01-22T04:52:55.624Z,0.10
2023-01-22T04:55:23.044Z,0.20
2023-01-22T04:57:49.770Z,0.20
2023-01-22T05:00:17.633Z,0.20
2023-01-22T05:02:44.422Z,0.10
2023-01-22T05:05:11.619Z,0.30
2023-01-22T05:07:38.182Z,0.17
2023-01-22T05:10:05.190Z,0.10
2023-01-22T05:12:31.788Z,0.20
2023-01-22T05:14:59.352Z,0.30
2023-01-22T05:17:25.922Z,0.20
2023-01-22T05:19:52.491Z,0.20
2023-01-22T05:22:19.059Z,0.10
2023-01-22T05:24:45.693Z,0.20
2023-01-22T05:27:12.287Z,2.20
2023-01-22T05:29:38.836Z,0.17
2023-01-22T05:32:05.622Z,0.17
2023-01-22T05:34:32.316Z,0.10
2023-01-22T05:36:58.994Z,0.10
2023-01-22T05:39:25.592Z,0.20
2023-01-22T05:41:52.581Z,0.20
2023-01-22T05:44:19.171Z,0.30
2023-01-22T05:46:45.747Z,1.20
2023-01-22T05:49:12.286Z,0.40
2023-01-22T05:51:39.147Z,0.10
2023-01-22T05:54:05.833Z,0.20
2023-01-22T05:56:32.546Z,0.10
2023-01-22T05:58:59.145Z,0.10
2023-01-22T06:01:26.172Z,0.10
2023-01-22T06:03:53.454Z,0.10
2023-01-22T06:06:20.408Z,1.13
2023-01-22T06:08:47.970Z,0.20
2023-01-22T06:11:17.004Z,0.10
2023-01-22T06:13:43.729Z,0.10
2023-01-22T06:16:11.265Z,0.10
2023-01-22T06:18:37.879Z,0.20
2023-01-22T06:21:06.269Z,0.10
2023-01-22T06:23:33.158Z,0.10
2023-01-22T06:26:01.556Z,0.10
2023-01-22T06:28:28.705Z,0.17
2023-01-22T06:30:57.711Z,0.20
2023-01-22T06:33:24.698Z,0.20
2023-01-22T06:35:55.168Z,0.20
2023-01-22T06:38:22.531Z,0.10
2023-01-22T06:40:57.780Z,0.20
2023-01-22T06:43:24.882Z,0.10
2023-01-22T06:45:51.831Z,0.10
2023-01-22T06:48:18.464Z,0.20
2023-01-22T06:50:45.355Z,0.53
2023-01-22T06:53:11.944Z,0.10
2023-01-22T06:55:38.871Z,0.37
2023-01-22T06:58:05.723Z,0.20
2023-01-22T07:00:32.738Z,0.10
2023-01-22T07:02:59.388Z,0.10
2023-01-22T07:05:27.481Z,0.20
2023-01-22T07:07:55.177Z,0.10
2023-01-22T07:10:22.532Z,0.10
2023-01-22T07:12:49.998Z,0.77
2023-01-22T07:15:16.847Z,0.20
2023-01-22T07:17:43.437Z,0.20
2023-01-22T07:20:10.681Z,0.20
2023-01-22T07:22:37.879Z,0.10
2023-01-22T07:25:05.054Z,0.67
2023-01-22T07:27:32.677Z,0.10
2023-01-22T07:29:59.365Z,0.13
2023-01-22T07:32:25.951Z,0.20
2023-01-22T07:34:52.900Z,0.10
2023-01-22T07:37:19.479Z,0.10
2023-01-22T07:39:46.057Z,0.20
2023-01-22T07:42:13.608Z,0.10
2023-01-22T07:44:43.001Z,0.10
2023-01-22T07:47:09.754Z,0.10
2023-01-22T07:49:36.434Z,0.30
2023-01-22T07:52:04.231Z,0.10
2023-01-22T07:54:32.438Z,0.10
2023-01-22T07:56:59.092Z,0.20
2023-01-22T07:59:25.676Z,0.13
2023-01-22T08:01:54.633Z,0.10
2023-01-22T08:04:21.609Z,0.20
2023-01-22T08:06:48.186Z,0.20
2023-01-22T08:09:21.664Z,0.10
2023-01-22T08:11:48.221Z,0.20
2023-01-22T08:14:14.761Z,0.10
2023-01-22T08:16:41.395Z,0.10
2023-01-22T08:19:08.052Z,0.10
2023-01-22T08:21:34.632Z,0.10
2023-01-22T08:24:01.852Z,0.10
2023-01-22T08:26:28.390Z,0.13
2023-01-22T08:28:54.944Z,0.20
2023-01-22T08:31:27.999Z,0.20
2023-01-22T08:33:55.366Z,0.10
2023-01-22T08:36:22.100Z,0.70
2023-01-22T08:38:48.691Z,0.20
2023-01-22T08:41:15.755Z,0.10
2023-01-22T08:43:42.496Z,0.20
2023-01-22T08:46:09.166Z,1.10
2023-01-22T08:48:36.353Z,0.10
2023-01-22T08:51:06.206Z,0.10
2023-01-22T08:53:33.924Z,0.20
2023-01-22T08:56:00.678Z,0.13
2023-01-22T08:58:28.012Z,0.20
2023-01-22T09:00:55.451Z,0.20
2023-01-22T09:03:22.931Z,0.10
2023-01-22T09:05:51.000Z,0.20
2023-01-22T09:08:17.709Z,0.20
2023-01-22T09:10:44.644Z,0.10
2023-01-22T09:13:11.326Z,0.10
2023-01-22T09:15:38.367Z,0.40
2023-01-22T09:18:05.406Z,0.20
2023-01-22T09:20:32.102Z,0.10
2023-01-22T09:22:58.677Z,0.10
2023-01-22T09:25:26.350Z,0.20
2023-01-22T09:28:00.447Z,0.20
2023-01-22T09:30:30.259Z,0.20
2023-01-22T09:32:57.046Z,0.10
2023-01-22T09:35:23.835Z,0.10
2023-01-22T09:37:50.491Z,0.20
2023-01-22T09:40:27.076Z,0.10
2023-01-22T09:43:26.364Z,0.10
2023-01-22T09:45:55.911Z,0.10
2023-01-22T09:48:22.910Z,2.00
2023-01-22T09:50:50.733Z,0.10
2023-01-22T09:53:19.376Z,0.10
2023-01-22T09:55:51.811Z,0.47
2023-01-22T09:58:21.311Z,0.20
2023-01-22T10:00:54.638Z,0.10
2023-01-22T10:03:30.461Z,0.20
2023-01-22T10:06:03.405Z,0.20
2023-01-22T10:08:58.589Z,0.10
2023-01-22T10:11:25.623Z,0.20
2023-01-22T10:13:56.129Z,0.10
2023-01-22T10:16:22.794Z,0.10
2023-01-22T10:18:58.395Z,0.10
2023-01-22T10:21:30.919Z,0.10
2023-01-22T10:23:58.330Z,5.93
2023-01-22T10:26:39.986Z,0.10
2023-01-22T10:29:26.701Z,0.10
2023-01-22T10:31:59.238Z,0.20
2023-01-22T10:34:31.341Z,0.73
2023-01-22T10:37:12.468Z,0.17
2023-01-22T10:39:47.659Z,0.10
2023-01-22T10:42:19.136Z,0.10
2023-01-22T10:44:46.284Z,0.20
2023-01-22T10:47:20.736Z,0.20
2023-01-22T10:49:48.741Z,0.10
2023-01-22T10:52:28.078Z,0.20
2023-01-22T10:54:57.971Z,0.20
2023-01-22T10:57:59.571Z,0.20
2023-01-22T11:00:43.007Z,0.57
2023-01-22T11:03:23.249Z,0.20
2023-01-22T11:05:57.872Z,0.20
2023-01-22T11:08:30.411Z,0.20
2023-01-22T11:11:00.651Z,0.20
2023-01-22T11:13:30.347Z,0.20
2023-01-22T11:16:05.602Z,0.10
2023-01-22T11:18:36.997Z,0.20
2023-01-22T11:21:13.447Z,0.30
2023-01-22T11:23:43.108Z,0.20
2023-01-22T11:26:33.953Z,0.20
2023-01-22T11:29:06.519Z,0.20
2023-01-22T11:31:39.327Z,4.23
2023-01-22T11:34:23.398Z,0.20
2023-01-22T11:36:58.851Z,0.17
2023-01-22T11:39:34.189Z,0.10
2023-01-22T11:42:07.616Z,0.10
2023-01-22T11:44:51.268Z,0.20
2023-01-22T11:47:42.382Z,0.10
2023-01-22T11:50:15.194Z,0.20
2023-01-22T11:52:49.286Z,0.20
2023-01-22T11:55:24.617Z,0.20
2023-01-22T11:57:51.155Z,0.20
2023-01-22T12:00:37.529Z,0.20
2023-01-22T12:03:42.686Z,2.77
2023-01-22T12:06:51.051Z,0.10
2023-01-22T12:09:23.086Z,0.20
2023-01-22T12:12:02.570Z,0.20
2023-01-22T12:14:29.187Z,0.20
2023-01-22T12:16:55.738Z,4.53
2023-01-22T12:19:44.253Z,5.20
2023-01-22T12:22:32.242Z,6.97
2023-01-22T12:25:03.681Z,6.57
2023-01-22T12:27:41.043Z,8.67
2023-01-22T12:30:27.656Z,2.87
2023-01-22T12:33:00.029Z,4.00
2023-01-22T12:35:29.846Z,4.70
2023-01-22T12:38:12.374Z,5.77
2023-01-22T12:40:48.240Z,6.37
2023-01-22T12:43:14.913Z,6.77
2023-01-22T12:45:59.177Z,7.23
2023-01-22T12:48:29.259Z,5.10
2023-01-22T12:50:57.343Z,5.60
2023-01-22T12:53:34.762Z,3.87
2023-01-22T12:56:10.407Z,4.10
2023-01-22T12:58:39.092Z,2.90
2023-01-22T13:01:05.838Z,3.37
2023-01-22T13:03:33.550Z,5.90
2023-01-22T13:06:02.439Z,4.70
2023-01-22T13:08:42.891Z,4.23
2023-01-22T13:11:14.937Z,3.97
2023-01-22T13:13:51.991Z,7.30
2023-01-22T13:16:34.156Z,4.20
2023-01-22T13:19:17.851Z,5.33
2023-01-22T13:21:44.587Z,4.77
2023-01-22T13:24:17.293Z,7.67
2023-01-22T13:26:54.793Z,11.03
2023-01-22T13:29:33.000Z,6.20
2023-01-22T13:32:00.666Z,7.07
2023-01-22T13:34:28.196Z,4.27
2023-01-22T13:36:55.771Z,7.50
2023-01-22T13:39:29.548Z,4.60
2023-01-22T13:42:01.148Z,7.07
2023-01-22T13:44:36.598Z,3.87
2023-01-22T13:47:03.921Z,5.90
2023-01-22T13:49:32.294Z,5.17
2023-01-22T13:52:04.307Z,6.23
2023-01-22T13:54:43.293Z,7.50
2023-01-22T13:57:14.609Z,13.83
2023-01-22T14:00:01.622Z,7.17
2023-01-22T14:02:30.516Z,5.83
2023-01-22T14:04:57.631Z,4.07
2023-01-22T14:07:31.349Z,9.87
2023-01-22T14:10:10.774Z,4.23
2023-01-22T14:12:37.408Z,3.47
2023-01-22T14:15:20.034Z,3.03
2023-01-22T14:17:48.500Z,6.80
2023-01-22T14:20:16.605Z,15.90
2023-01-22T14:22:43.334Z,3.87
2023-01-22T14:25:10.349Z,4.57
2023-01-22T14:27:45.797Z,5.37
2023-01-22T14:30:15.183Z,6.87
2023-01-22T14:32:43.309Z,7.67
2023-01-22T14:35:21.911Z,5.63
2023-01-22T14:37:48.797Z,7.57
2023-01-22T14:40:16.767Z,9.27
2023-01-22T14:42:43.788Z,9.50
2023-01-22T14:45:11.311Z,6.87
2023-01-22T14:47:37.922Z,8.67
2023-01-22T14:50:05.660Z,9.43
2023-01-22T14:52:32.318Z,17.67
2023-01-22T14:54:59.083Z,14.87
2023-01-22T14:57:25.886Z,10.83
2023-01-22T14:59:52.496Z,10.17
2023-01-22T15:02:19.115Z,9.50
2023-01-22T15:04:46.099Z,11.70
2023-01-22T15:07:12.785Z,17.60
2023-01-22T15:09:40.010Z,18.30
2023-01-22T15:12:07.360Z,14.97
2023-01-22T15:14:34.675Z,19.80
2023-01-22T15:17:01.305Z,12.33
2023-01-22T15:19:29.465Z,31.23
2023-01-22T15:21:58.928Z,14.33
2023-01-22T15:24:26.828Z,21.87
2023-01-22T15:26:53.474Z,18.43
2023-01-22T15:29:20.132Z,22.40
2023-01-22T15:31:46.750Z,28.07
2023-01-22T15:34:13.473Z,29.37
2023-01-22T15:36:40.149Z,21.03
2023-01-22T15:39:07.662Z,12.00
2023-01-22T15:41:36.016Z,17.30
2023-01-22T15:44:05.389Z,26.80
2023-01-22T15:46:37.362Z,18.87
2023-01-22T15:49:05.351Z,18.93
2023-01-22T15:51:32.245Z,24.60
2023-01-22T15:54:03.393Z,24.00
2023-01-22T15:56:37.516Z,37.23
2023-01-22T15:59:04.800Z,24.77
2023-01-22T16:01:31.518Z,27.20
2023-01-22T16:03:58.368Z,27.13
2023-01-22T16:06:27.327Z,30.47
2023-01-22T16:08:55.410Z,45.57
2023-01-22T16:11:22.173Z,36.17
2023-01-22T16:13:49.053Z,21.10
2023-01-22T16:16:21.378Z,25.27
2023-01-22T16:18:49.995Z,25.37
2023-01-22T16:21:17.443Z,24.87
2023-01-22T16:23:45.923Z,33.87
2023-01-22T16:26:18.027Z,35.47
2023-01-22T16:28:46.317Z,33.43
2023-01-22T16:31:18.469Z,39.57
2023-01-22T16:33:47.122Z,30.87
2023-01-22T16:36:16.160Z,32.53
2023-01-22T16:38:43.313Z,42.57
2023-01-22T16:41:24.549Z,34.03
2023-01-22T16:44:08.823Z,29.50
2023-01-22T16:46:39.908Z,35.83
2023-01-22T16:49:10.532Z,26.17
2023-01-22T16:51:45.837Z,24.07
2023-01-22T16:54:19.716Z,18.47
2023-01-22T16:56:46.490Z,15.77
2023-01-22T16:59:13.263Z,19.97
2023-01-22T17:01:41.423Z,8.03
2023-01-22T17:04:08.143Z,12.17
2023-01-22T17:06:40.672Z,12.77
2023-01-22T17:09:09.658Z,29.10
2023-01-22T17:11:36.226Z,24.57
2023-01-22T17:14:06.242Z,38.27
2023-01-22T17:16:34.136Z,74.97
2023-01-22T17:19:00.849Z,62.43
2023-01-22T17:21:29.107Z,247.23
2023-01-22T17:23:55.930Z,54.97
2023-01-22T17:26:22.529Z,53.80
2023-01-22T17:28:49.271Z,46.27
2023-01-22T17:31:19.021Z,50.87
2023-01-22T17:33:46.604Z,70.87
2023-01-22T17:36:15.794Z,46.77
2023-01-22T17:38:42.920Z,53.03
2023-01-22T17:41:16.161Z,31.03
2023-01-22T17:43:45.211Z,46.07
2023-01-22T17:46:17.485Z,37.13
2023-01-22T17:48:45.604Z,20.07
2023-01-22T17:51:14.740Z,19.53
2023-01-22T17:53:43.209Z,21.80
2023-01-22T17:56:21.412Z,29.37
2023-01-22T17:58:51.862Z,95.73
2023-01-22T18:01:20.579Z,159.07
2023-01-22T18:03:47.990Z,44.83
2023-01-22T18:06:15.091Z,67.57
2023-01-22T18:08:42.611Z,76.07
2023-01-22T18:11:15.605Z,84.93
2023-01-22T18:13:42.502Z,56.43
2023-01-22T18:16:12.179Z,28.80
2023-01-22T18:18:39.200Z,70.80
2023-01-22T18:21:13.301Z,79.90
2023-01-22T18:23:40.284Z,50.00
2023-01-22T18:26:07.521Z,47.73
2023-01-22T18:28:34.954Z,72.23
2023-01-22T18:31:10.475Z,40.20
2023-01-22T18:33:38.025Z,43.33
2023-01-22T18:36:08.530Z,33.40
2023-01-22T18:38:36.817Z,31.20
2023-01-22T18:41:06.930Z,31.88
2023-01-22T18:43:33.982Z,30.37
2023-01-22T18:46:11.375Z,77.07
2023-01-22T18:48:39.595Z,46.43
2023-01-22T18:51:09.010Z,39.20
2023-01-22T18:53:36.812Z,34.90
2023-01-22T18:56:05.688Z,81.53
2023-01-22T18:58:35.158Z,29.63
2023-01-22T19:01:21.999Z,54.67
2023-01-22T19:03:54.168Z,37.20
2023-01-22T19:06:23.632Z,41.17
2023-01-22T19:09:03.590Z,36.67
2023-01-22T19:11:32.454Z,31.70
2023-01-22T19:14:00.302Z,54.77
2023-01-22T19:16:30.243Z,69.73
2023-01-22T19:18:59.482Z,65.67
2023-01-22T19:21:26.845Z,71.60
2023-01-22T19:23:59.370Z,217.43
2023-01-22T19:26:31.409Z,70.13
2023-01-22T19:29:00.908Z,97.20
2023-01-22T19:31:30.611Z,56.60
2023-01-22T19:33:57.288Z,122.93
2023-01-22T19:36:28.473Z,57.67
2023-01-22T19:38:56.478Z,66.20
2023-01-22T19:41:23.485Z,51.17
2023-01-22T19:43:54.398Z,62.40
2023-01-22T19:46:21.062Z,110.87
2023-01-22T19:48:47.656Z,71.27
2023-01-22T19:51:15.950Z,60.30
2023-01-22T19:53:42.918Z,50.10
2023-01-22T19:56:17.474Z,57.10
2023-01-22T19:58:44.790Z,50.70
2023-01-22T20:01:12.175Z,50.50
2023-01-22T20:03:39.282Z,49.60
2023-01-22T20:06:07.547Z,44.37
2023-01-22T20:08:38.916Z,70.53
2023-01-22T20:11:07.952Z,50.57
2023-01-22T20:13:35.512Z,51.33
2023-01-22T20:16:02.321Z,45.90
2023-01-22T20:18:30.724Z,43.03
2023-01-22T20:20:59.583Z,50.77
2023-01-22T20:23:27.479Z,46.17
2023-01-22T20:25:54.624Z,70.50
2023-01-22T20:28:21.747Z,47.77
2023-01-22T20:31:04.135Z,49.50
2023-01-22T20:33:31.577Z,47.03
2023-01-22T20:35:59.995Z,46.63
2023-01-22T20:38:27.231Z,40.57
2023-01-22T20:40:53.882Z,46.33
2023-01-22T20:43:20.801Z,57.27
2023-01-22T20:46:05.403Z,51.33
2023-01-22T20:48:32.825Z,46.63
2023-01-22T20:50:59.849Z,41.53
2023-01-22T20:53:27.875Z,38.37
2023-01-22T20:55:59.911Z,38.07
2023-01-22T20:58:26.748Z,34.30
2023-01-22T21:00:53.580Z,34.53
2023-01-22T21:03:20.250Z,37.43
2023-01-22T21:05:46.837Z,36.73
2023-01-22T21:08:15.111Z,36.87
2023-01-22T21:10:41.791Z,35.30
2023-01-22T21:13:08.336Z,38.77
2023-01-22T21:15:34.902Z,39.17
2023-01-22T21:18:01.576Z,42.50
2023-01-22T21:20:28.183Z,32.80
2023-01-22T21:22:54.782Z,37.50
2023-01-22T21:25:21.384Z,33.33
2023-01-22T21:27:50.869Z,32.70
2023-01-22T21:30:18.040Z,35.53
2023-01-22T21:32:44.896Z,23.97
2023-01-22T21:35:11.646Z,26.97
2023-01-22T21:37:38.291Z,24.07
2023-01-22T21:40:06.603Z,28.53
2023-01-22T21:42:51.926Z,26.57
2023-01-22T21:45:36.998Z,23.97
2023-01-22T21:48:03.865Z,27.70
2023-01-22T21:50:31.034Z,26.50
2023-01-22T21:52:57.650Z,26.67
2023-01-22T21:55:24.290Z,23.27
2023-01-22T21:57:51.513Z,25.03
2023-01-22T22:00:19.897Z,24.23
2023-01-22T22:02:46.647Z,22.13
2023-01-22T22:05:13.260Z,20.00
2023-01-22T22:07:39.928Z,21.97
2023-01-22T22:10:11.757Z,24.07
2023-01-22T22:12:41.282Z,26.40
2023-01-22T22:15:12.415Z,29.77
2023-01-22T22:17:39.297Z,28.10
2023-01-22T22:20:06.363Z,41.07
2023-01-22T22:22:33.032Z,76.07
2023-01-22T22:24:59.644Z,38.30
2023-01-22T22:27:27.773Z,34.93
2023-01-22T22:29:54.839Z,47.57
2023-01-22T22:32:21.659Z,38.53
2023-01-22T22:34:49.549Z,35.60
2023-01-22T22:37:16.902Z,30.03
2023-01-22T22:39:43.470Z,36.23
2023-01-22T22:42:10.099Z,43.13
2023-01-22T22:44:37.723Z,44.37
2023-01-22T22:47:05.077Z,38.27
2023-01-22T22:49:31.810Z,37.90
2023-01-22T22:51:58.518Z,34.87
2023-01-22T22:54:25.119Z,38.10
2023-01-22T22:56:52.875Z,40.53
2023-01-22T22:59:20.940Z,37.93
2023-01-22T23:01:49.026Z,36.90
2023-01-22T23:04:15.832Z,31.93
2023-01-22T23:06:44.974Z,40.30
2023-01-22T23:09:13.462Z,32.90
2023-01-22T23:11:40.105Z,29.23
2023-01-22T23:14:07.285Z,33.17
2023-01-22T23:16:39.394Z,24.67
2023-01-22T23:19:08.639Z,38.13
2023-01-22T23:21:36.457Z,33.13
2023-01-22T23:24:03.363Z,31.17
2023-01-22T23:26:30.688Z,29.10
2023-01-22T23:29:00.560Z,31.03
2023-01-22T23:31:28.817Z,31.67
2023-01-22T23:33:56.646Z,31.83
2023-01-22T23:36:24.485Z,34.77
2023-01-22T23:38:51.106Z,31.70
2023-01-22T23:41:18.846Z,39.70
2023-01-22T23:43:45.971Z,31.90
2023-01-22T23:46:14.947Z,40.53
2023-01-22T23:48:42.058Z,31.37
2023-01-22T23:51:10.241Z,36.80
2023-01-22T23:53:40.047Z,27.67
2023-01-22T23:56:07.356Z,33.03
2023-01-22T23:58:34.833Z,27.97
